sensor_id;sensor_type;location;lat;lon;timestamp;P1;durP1;ratioP1;P2;durP2;ratioP2
22425;SDS011;11380;50.822;15.790;2022-10-16T00:04:32;57.77;;;52.13;;
22425;SDS011;11380;50.822;15.790;2022-10-16T00:09:36;60.07;;;54.07;;
22425;SDS011;11380;50.822;15.790;2022-10-16T00:14:43;59.90;;;53.85;;
22425;SDS011;11380;50.822;15.790;2022-10-16T00:19:49;60.13;;;54.03;;
22425;SDS011;11380;50.822;15.790;2022-10-16T00:24:55;56.53;;;51.23;;
22425;SDS011;11380;50.822;15.790;2022-10-16T00:30:00;56.27;;;51.27;;
22425;SDS011;11380;50.822;15.790;2022-10-16T00:35:07;58.33;;;52.77;;
22425;SDS011;11380;50.822;15.790;2022-10-16T00:40:12;55.00;;;50.07;;
22425;SDS011;11380;50.822;15.790;2022-10-16T00:45:19;54.93;;;49.80;;
22425;SDS011;11380;50.822;15.790;2022-10-16T00:50:31;52.78;;;48.20;;
22425;SDS011;11380;50.822;15.790;2022-10-16T00:55:38;52.10;;;47.70;;
22425;SDS011;11380;50.822;15.790;2022-10-16T01:00:45;51.03;;;46.83;;
22425;SDS011;11380;50.822;15.790;2022-10-16T01:06:04;54.87;;;49.07;;
22425;SDS011;11380;50.822;15.790;2022-10-16T01:11:09;51.97;;;47.43;;
22425;SDS011;11380;50.822;15.790;2022-10-16T01:16:16;51.63;;;47.20;;
22425;SDS011;11380;50.822;15.790;2022-10-16T01:21:31;52.62;;;48.02;;
22425;SDS011;11380;50.822;15.790;2022-10-16T01:32:14;50.87;;;46.67;;
22425;SDS011;11380;50.822;15.790;2022-10-16T01:37:25;52.93;;;48.17;;
22425;SDS011;11380;50.822;15.790;2022-10-16T01:42:36;51.03;;;46.80;;
22425;SDS011;11380;50.822;15.790;2022-10-16T01:47:48;50.77;;;46.57;;
22425;SDS011;11380;50.822;15.790;2022-10-16T01:52:55;51.30;;;47.10;;
22425;SDS011;11380;50.822;15.790;2022-10-16T01:58:04;51.70;;;47.30;;
22425;SDS011;11380;50.822;15.790;2022-10-16T02:03:12;51.10;;;46.80;;
22425;SDS011;11380;50.822;15.790;2022-10-16T02:08:22;50.75;;;46.55;;
22425;SDS011;11380;50.822;15.790;2022-10-16T02:13:45;52.20;;;47.60;;
22425;SDS011;11380;50.822;15.790;2022-10-16T02:18:56;50.77;;;46.47;;
22425;SDS011;11380;50.822;15.790;2022-10-16T02:29:16;51.10;;;46.70;;
22425;SDS011;11380;50.822;15.790;2022-10-16T02:34:23;50.67;;;46.43;;
22425;SDS011;11380;50.822;15.790;2022-10-16T02:39:30;51.45;;;47.15;;
22425;SDS011;11380;50.822;15.790;2022-10-16T02:44:36;51.13;;;46.83;;
22425;SDS011;11380;50.822;15.790;2022-10-16T02:49:42;50.75;;;46.55;;
22425;SDS011;11380;50.822;15.790;2022-10-16T02:54:50;50.87;;;46.67;;
22425;SDS011;11380;50.822;15.790;2022-10-16T02:59:55;50.07;;;45.97;;
22425;SDS011;11380;50.822;15.790;2022-10-16T03:05:00;49.93;;;45.83;;
22425;SDS011;11380;50.822;15.790;2022-10-16T03:10:07;49.77;;;45.65;;
22425;SDS011;11380;50.822;15.790;2022-10-16T03:15:13;49.95;;;45.85;;
22425;SDS011;11380;50.822;15.790;2022-10-16T03:20:19;49.80;;;45.75;;
22425;SDS011;11380;50.822;15.790;2022-10-16T03:25:25;51.30;;;47.00;;
22425;SDS011;11380;50.822;15.790;2022-10-16T03:30:31;51.17;;;46.87;;
22425;SDS011;11380;50.822;15.790;2022-10-16T03:35:36;51.57;;;47.13;;
22425;SDS011;11380;50.822;15.790;2022-10-16T03:40:43;50.35;;;46.25;;
22425;SDS011;11380;50.822;15.790;2022-10-16T03:45:49;50.40;;;46.27;;
22425;SDS011;11380;50.822;15.790;2022-10-16T03:50:55;52.07;;;47.73;;
22425;SDS011;11380;50.822;15.790;2022-10-16T03:56:01;49.23;;;45.30;;
22425;SDS011;11380;50.822;15.790;2022-10-16T04:01:06;50.20;;;46.10;;
22425;SDS011;11380;50.822;15.790;2022-10-16T04:06:12;49.60;;;45.63;;
22425;SDS011;11380;50.822;15.790;2022-10-16T04:11:17;51.97;;;47.57;;
22425;SDS011;11380;50.822;15.790;2022-10-16T04:16:23;50.27;;;46.17;;
22425;SDS011;11380;50.822;15.790;2022-10-16T04:21:28;50.10;;;46.07;;
22425;SDS011;11380;50.822;15.790;2022-10-16T04:26:34;49.70;;;45.70;;
22425;SDS011;11380;50.822;15.790;2022-10-16T04:31:40;49.40;;;45.30;;
22425;SDS011;11380;50.822;15.790;2022-10-16T04:36:48;49.63;;;45.63;;
22425;SDS011;11380;50.822;15.790;2022-10-16T04:41:55;49.53;;;45.53;;
22425;SDS011;11380;50.822;15.790;2022-10-16T04:47:00;50.23;;;46.13;;
22425;SDS011;11380;50.822;15.790;2022-10-16T04:52:06;50.00;;;45.90;;
22425;SDS011;11380;50.822;15.790;2022-10-16T04:57:13;50.77;;;46.47;;
22425;SDS011;11380;50.822;15.790;2022-10-16T05:02:18;50.50;;;46.18;;
22425;SDS011;11380;50.822;15.790;2022-10-16T05:07:23;50.53;;;46.23;;
22425;SDS011;11380;50.822;15.790;2022-10-16T05:12:30;50.70;;;46.50;;
22425;SDS011;11380;50.822;15.790;2022-10-16T05:17:35;50.37;;;46.20;;
22425;SDS011;11380;50.822;15.790;2022-10-16T05:22:42;50.47;;;46.33;;
22425;SDS011;11380;50.822;15.790;2022-10-16T05:27:48;50.55;;;46.35;;
22425;SDS011;11380;50.822;15.790;2022-10-16T05:32:56;50.63;;;46.47;;
22425;SDS011;11380;50.822;15.790;2022-10-16T05:38:01;51.50;;;47.00;;
22425;SDS011;11380;50.822;15.790;2022-10-16T05:43:06;53.20;;;48.77;;
22425;SDS011;11380;50.822;15.790;2022-10-16T05:48:12;51.37;;;47.07;;
22425;SDS011;11380;50.822;15.790;2022-10-16T05:53:16;52.03;;;47.63;;
22425;SDS011;11380;50.822;15.790;2022-10-16T05:58:24;51.05;;;46.77;;
22425;SDS011;11380;50.822;15.790;2022-10-16T06:03:32;50.27;;;46.07;;
22425;SDS011;11380;50.822;15.790;2022-10-16T06:08:38;50.48;;;46.37;;
22425;SDS011;11380;50.822;15.790;2022-10-16T06:19:13;51.37;;;47.07;;
22425;SDS011;11380;50.822;15.790;2022-10-16T06:24:20;51.00;;;46.80;;
22425;SDS011;11380;50.822;15.790;2022-10-16T06:29:26;51.10;;;46.90;;
22425;SDS011;11380;50.822;15.790;2022-10-16T06:34:31;50.67;;;46.47;;
22425;SDS011;11380;50.822;15.790;2022-10-16T06:39:37;51.18;;;46.77;;
22425;SDS011;11380;50.822;15.790;2022-10-16T06:44:43;50.83;;;46.60;;
22425;SDS011;11380;50.822;15.790;2022-10-16T06:49:50;52.48;;;47.98;;
22425;SDS011;11380;50.822;15.790;2022-10-16T07:00:02;50.43;;;46.28;;
22425;SDS011;11380;50.822;15.790;2022-10-16T07:05:08;52.57;;;48.17;;
22425;SDS011;11380;50.822;15.790;2022-10-16T07:10:13;54.70;;;49.90;;
22425;SDS011;11380;50.822;15.790;2022-10-16T07:15:19;51.28;;;46.98;;
22425;SDS011;11380;50.822;15.790;2022-10-16T07:20:23;51.57;;;47.27;;
22425;SDS011;11380;50.822;15.790;2022-10-16T07:25:30;51.42;;;47.13;;
22425;SDS011;11380;50.822;15.790;2022-10-16T07:30:35;54.43;;;49.73;;
22425;SDS011;11380;50.822;15.790;2022-10-16T07:35:48;53.70;;;49.03;;
22425;SDS011;11380;50.822;15.790;2022-10-16T07:41:03;52.47;;;48.00;;
22425;SDS011;11380;50.822;15.790;2022-10-16T07:46:05;51.77;;;47.33;;
22425;SDS011;11380;50.822;15.790;2022-10-16T07:51:10;52.60;;;48.10;;
22425;SDS011;11380;50.822;15.790;2022-10-16T07:56:16;52.20;;;47.70;;
22425;SDS011;11380;50.822;15.790;2022-10-16T08:01:22;52.20;;;47.70;;
22425;SDS011;11380;50.822;15.790;2022-10-16T08:06:27;52.47;;;48.00;;
22425;SDS011;11380;50.822;15.790;2022-10-16T08:11:32;53.23;;;48.67;;
22425;SDS011;11380;50.822;15.790;2022-10-16T08:16:39;52.08;;;47.60;;
22425;SDS011;11380;50.822;15.790;2022-10-16T08:21:46;52.33;;;47.93;;
22425;SDS011;11380;50.822;15.790;2022-10-16T08:26:55;51.80;;;47.40;;
22425;SDS011;11380;50.822;15.790;2022-10-16T08:32:00;51.13;;;46.83;;
22425;SDS011;11380;50.822;15.790;2022-10-16T08:37:07;50.97;;;46.67;;
22425;SDS011;11380;50.822;15.790;2022-10-16T08:53:36;51.02;;;46.65;;
22425;SDS011;11380;50.822;15.790;2022-10-16T08:58:43;51.75;;;47.25;;
22425;SDS011;11380;50.822;15.790;2022-10-16T09:19:43;51.90;;;47.40;;
22425;SDS011;11380;50.822;15.790;2022-10-16T09:24:53;51.80;;;47.20;;
22425;SDS011;11380;50.822;15.790;2022-10-16T09:30:06;52.23;;;47.63;;
22425;SDS011;11380;50.822;15.790;2022-10-16T09:35:19;51.57;;;47.13;;
22425;SDS011;11380;50.822;15.790;2022-10-16T09:40:31;51.40;;;47.00;;
22425;SDS011;11380;50.822;15.790;2022-10-16T09:45:35;51.93;;;47.43;;
22425;SDS011;11380;50.822;15.790;2022-10-16T09:50:41;52.83;;;48.20;;
22425;SDS011;11380;50.822;15.790;2022-10-16T09:55:52;51.97;;;47.47;;
22425;SDS011;11380;50.822;15.790;2022-10-16T10:00:59;52.27;;;47.70;;
22425;SDS011;11380;50.822;15.790;2022-10-16T10:06:19;52.20;;;47.65;;
22425;SDS011;11380;50.822;15.790;2022-10-16T10:17:07;52.53;;;47.93;;
22425;SDS011;11380;50.822;15.790;2022-10-16T10:22:17;52.57;;;47.97;;
22425;SDS011;11380;50.822;15.790;2022-10-16T10:27:34;52.63;;;48.03;;
22425;SDS011;11380;50.822;15.790;2022-10-16T11:05:21;52.13;;;47.58;;
22425;SDS011;11380;50.822;15.790;2022-10-16T11:10:31;53.10;;;48.40;;
22425;SDS011;11380;50.822;15.790;2022-10-16T11:15:47;53.00;;;48.30;;
22425;SDS011;11380;50.822;15.790;2022-10-16T11:21:04;52.67;;;48.02;;
22425;SDS011;11380;50.822;15.790;2022-10-16T11:26:10;53.07;;;48.30;;
22425;SDS011;11380;50.822;15.790;2022-10-16T11:31:28;53.27;;;48.57;;
22425;SDS011;11380;50.822;15.790;2022-10-16T11:42:20;53.13;;;48.33;;
22425;SDS011;11380;50.822;15.790;2022-10-16T11:47:43;53.07;;;48.30;;
22425;SDS011;11380;50.822;15.790;2022-10-16T12:03:40;53.05;;;48.35;;
22425;SDS011;11380;50.822;15.790;2022-10-16T12:08:46;53.10;;;48.40;;
22425;SDS011;11380;50.822;15.790;2022-10-16T12:14:03;53.87;;;49.07;;
22425;SDS011;11380;50.822;15.790;2022-10-16T12:19:20;53.47;;;48.67;;
22425;SDS011;11380;50.822;15.790;2022-10-16T12:24:32;53.37;;;48.63;;
22425;SDS011;11380;50.822;15.790;2022-10-16T12:29:39;53.27;;;48.40;;
22425;SDS011;11380;50.822;15.790;2022-10-16T12:34:46;53.50;;;48.70;;
22425;SDS011;11380;50.822;15.790;2022-10-16T12:39:53;53.47;;;48.70;;
22425;SDS011;11380;50.822;15.790;2022-10-16T12:45:00;53.17;;;48.47;;
22425;SDS011;11380;50.822;15.790;2022-10-16T12:50:23;53.58;;;48.78;;
22425;SDS011;11380;50.822;15.790;2022-10-16T12:55:35;53.53;;;48.73;;
22425;SDS011;11380;50.822;15.790;2022-10-16T13:06:09;53.60;;;48.80;;
22425;SDS011;11380;50.822;15.790;2022-10-16T13:22:33;53.10;;;48.40;;
22425;SDS011;11380;50.822;15.790;2022-10-16T13:33:06;54.13;;;49.17;;
22425;SDS011;11380;50.822;15.790;2022-10-16T13:38:27;54.07;;;49.17;;
22425;SDS011;11380;50.822;15.790;2022-10-16T13:43:34;53.48;;;48.68;;
22425;SDS011;11380;50.822;15.790;2022-10-16T13:48:42;53.80;;;49.00;;
22425;SDS011;11380;50.822;15.790;2022-10-16T13:53:50;53.55;;;48.75;;
22425;SDS011;11380;50.822;15.790;2022-10-16T13:58:59;53.70;;;48.87;;
22425;SDS011;11380;50.822;15.790;2022-10-16T14:04:07;54.20;;;49.10;;
22425;SDS011;11380;50.822;15.790;2022-10-16T14:09:27;55.23;;;50.13;;
22425;SDS011;11380;50.822;15.790;2022-10-16T14:14:40;53.87;;;48.97;;
22425;SDS011;11380;50.822;15.790;2022-10-16T14:19:45;53.77;;;48.97;;
22425;SDS011;11380;50.822;15.790;2022-10-16T14:24:54;53.47;;;48.67;;
22425;SDS011;11380;50.822;15.790;2022-10-16T14:30:17;53.48;;;48.68;;
22425;SDS011;11380;50.822;15.790;2022-10-16T14:35:28;53.77;;;48.93;;
22425;SDS011;11380;50.822;15.790;2022-10-16T14:40:36;53.60;;;48.77;;
22425;SDS011;11380;50.822;15.790;2022-10-16T14:45:43;53.50;;;48.70;;
22425;SDS011;11380;50.822;15.790;2022-10-16T14:50:51;54.00;;;49.03;;
22425;SDS011;11380;50.822;15.790;2022-10-16T14:55:57;54.23;;;49.37;;
22425;SDS011;11380;50.822;15.790;2022-10-16T15:01:02;53.80;;;49.00;;
22425;SDS011;11380;50.822;15.790;2022-10-16T15:06:10;53.90;;;49.10;;
22425;SDS011;11380;50.822;15.790;2022-10-16T15:11:17;54.37;;;49.47;;
22425;SDS011;11380;50.822;15.790;2022-10-16T15:16:24;53.80;;;49.00;;
22425;SDS011;11380;50.822;15.790;2022-10-16T15:21:31;53.75;;;48.98;;
22425;SDS011;11380;50.822;15.790;2022-10-16T15:26:37;53.97;;;48.97;;
22425;SDS011;11380;50.822;15.790;2022-10-16T15:31:43;53.50;;;48.60;;
22425;SDS011;11380;50.822;15.790;2022-10-16T15:36:52;54.37;;;49.57;;
22425;SDS011;11380;50.822;15.790;2022-10-16T15:41:58;54.53;;;49.33;;
22425;SDS011;11380;50.822;15.790;2022-10-16T15:47:03;55.93;;;50.83;;
22425;SDS011;11380;50.822;15.790;2022-10-16T15:52:09;55.67;;;50.57;;
22425;SDS011;11380;50.822;15.790;2022-10-16T15:57:14;56.63;;;51.58;;
22425;SDS011;11380;50.822;15.790;2022-10-16T16:02:20;53.20;;;48.50;;
22425;SDS011;11380;50.822;15.790;2022-10-16T16:07:25;54.60;;;49.67;;
22425;SDS011;11380;50.822;15.790;2022-10-16T16:12:32;53.83;;;48.83;;
22425;SDS011;11380;50.822;15.790;2022-10-16T16:17:39;53.17;;;48.43;;
22425;SDS011;11380;50.822;15.790;2022-10-16T16:22:44;58.60;;;53.00;;
22425;SDS011;11380;50.822;15.790;2022-10-16T16:27:50;55.75;;;50.52;;
22425;SDS011;11380;50.822;15.790;2022-10-16T16:32:55;56.30;;;50.97;;
22425;SDS011;11380;50.822;15.790;2022-10-16T16:38:01;55.17;;;49.77;;
22425;SDS011;11380;50.822;15.790;2022-10-16T16:43:06;54.23;;;49.43;;
22425;SDS011;11380;50.822;15.790;2022-10-16T16:48:13;54.53;;;49.63;;
22425;SDS011;11380;50.822;15.790;2022-10-16T16:53:18;56.33;;;51.18;;
22425;SDS011;11380;50.822;15.790;2022-10-16T16:58:26;57.60;;;52.07;;
22425;SDS011;11380;50.822;15.790;2022-10-16T17:03:32;57.73;;;52.33;;
22425;SDS011;11380;50.822;15.790;2022-10-16T17:08:39;58.20;;;52.80;;
22425;SDS011;11380;50.822;15.790;2022-10-16T17:13:44;56.70;;;51.20;;
22425;SDS011;11380;50.822;15.790;2022-10-16T17:18:52;55.52;;;50.50;;
22425;SDS011;11380;50.822;15.790;2022-10-16T17:23:58;58.63;;;52.87;;
22425;SDS011;11380;50.822;15.790;2022-10-16T17:29:04;56.83;;;51.55;;
22425;SDS011;11380;50.822;15.790;2022-10-16T17:34:10;61.53;;;55.30;;
22425;SDS011;11380;50.822;15.790;2022-10-16T17:39:16;56.08;;;51.00;;
22425;SDS011;11380;50.822;15.790;2022-10-16T17:49:26;54.63;;;49.75;;
22425;SDS011;11380;50.822;15.790;2022-10-16T17:59:41;57.70;;;52.10;;
22425;SDS011;11380;50.822;15.790;2022-10-16T18:04:48;58.70;;;52.90;;
22425;SDS011;11380;50.822;15.790;2022-10-16T18:09:54;56.67;;;51.37;;
22425;SDS011;11380;50.822;15.790;2022-10-16T18:15:02;85.40;;;77.13;;
22425;SDS011;11380;50.822;15.790;2022-10-16T18:20:10;55.28;;;50.17;;
22425;SDS011;11380;50.822;15.790;2022-10-16T18:25:18;57.53;;;52.13;;
22425;SDS011;11380;50.822;15.790;2022-10-16T18:30:24;57.25;;;51.83;;
22425;SDS011;11380;50.822;15.790;2022-10-16T18:35:30;58.48;;;52.88;;
22425;SDS011;11380;50.822;15.790;2022-10-16T18:40:42;55.10;;;50.10;;
22425;SDS011;11380;50.822;15.790;2022-10-16T18:45:56;54.53;;;49.50;;
22425;SDS011;11380;50.822;15.790;2022-10-16T18:51:06;56.00;;;50.93;;
22425;SDS011;11380;50.822;15.790;2022-10-16T18:56:17;55.77;;;50.67;;
22425;SDS011;11380;50.822;15.790;2022-10-16T19:01:24;58.37;;;52.73;;
22425;SDS011;11380;50.822;15.790;2022-10-16T19:06:33;56.47;;;51.37;;
22425;SDS011;11380;50.822;15.790;2022-10-16T19:11:42;57.67;;;52.33;;
22425;SDS011;11380;50.822;15.790;2022-10-16T19:16:47;58.38;;;52.93;;
22425;SDS011;11380;50.822;15.790;2022-10-16T19:21:53;62.60;;;56.60;;
22425;SDS011;11380;50.822;15.790;2022-10-16T19:27:03;60.93;;;54.97;;
22425;SDS011;11380;50.822;15.790;2022-10-16T19:32:10;60.40;;;54.60;;
22425;SDS011;11380;50.822;15.790;2022-10-16T19:37:16;60.92;;;54.93;;
22425;SDS011;11380;50.822;15.790;2022-10-16T19:42:24;59.87;;;54.27;;
22425;SDS011;11380;50.822;15.790;2022-10-16T19:47:30;60.63;;;54.83;;
22425;SDS011;11380;50.822;15.790;2022-10-16T19:52:35;58.23;;;52.73;;
22425;SDS011;11380;50.822;15.790;2022-10-16T19:57:41;57.17;;;51.90;;
22425;SDS011;11380;50.822;15.790;2022-10-16T20:02:46;56.60;;;51.47;;
22425;SDS011;11380;50.822;15.790;2022-10-16T20:07:54;59.07;;;53.47;;
22425;SDS011;11380;50.822;15.790;2022-10-16T20:13:00;56.17;;;51.07;;
22425;SDS011;11380;50.822;15.790;2022-10-16T20:18:07;60.47;;;54.30;;
22425;SDS011;11380;50.822;15.790;2022-10-16T20:28:20;60.77;;;54.73;;
22425;SDS011;11380;50.822;15.790;2022-10-16T20:33:28;60.20;;;54.47;;
22425;SDS011;11380;50.822;15.790;2022-10-16T20:38:33;59.47;;;53.80;;
22425;SDS011;11380;50.822;15.790;2022-10-16T20:43:41;57.73;;;52.37;;
22425;SDS011;11380;50.822;15.790;2022-10-16T20:48:48;58.17;;;52.80;;
22425;SDS011;11380;50.822;15.790;2022-10-16T20:53:57;58.77;;;53.27;;
22425;SDS011;11380;50.822;15.790;2022-10-16T20:59:04;58.20;;;52.70;;
22425;SDS011;11380;50.822;15.790;2022-10-16T21:04:10;56.48;;;51.42;;
22425;SDS011;11380;50.822;15.790;2022-10-16T21:09:15;56.50;;;51.40;;
22425;SDS011;11380;50.822;15.790;2022-10-16T21:14:20;58.05;;;52.80;;
22425;SDS011;11380;50.822;15.790;2022-10-16T21:19:29;61.02;;;55.00;;
22425;SDS011;11380;50.822;15.790;2022-10-16T21:24:36;57.97;;;52.43;;
22425;SDS011;11380;50.822;15.790;2022-10-16T21:29:43;55.57;;;50.47;;
22425;SDS011;11380;50.822;15.790;2022-10-16T21:34:50;62.23;;;55.87;;
22425;SDS011;11380;50.822;15.790;2022-10-16T21:39:55;57.67;;;52.23;;
22425;SDS011;11380;50.822;15.790;2022-10-16T21:45:01;58.20;;;52.73;;
22425;SDS011;11380;50.822;15.790;2022-10-16T21:50:06;60.13;;;54.33;;
22425;SDS011;11380;50.822;15.790;2022-10-16T22:00:18;58.10;;;52.43;;
22425;SDS011;11380;50.822;15.790;2022-10-16T22:05:23;58.55;;;52.95;;
22425;SDS011;11380;50.822;15.790;2022-10-16T22:10:29;62.00;;;55.53;;
22425;SDS011;11380;50.822;15.790;2022-10-16T22:15:34;58.03;;;52.63;;
22425;SDS011;11380;50.822;15.790;2022-10-16T22:20:44;60.47;;;54.67;;
22425;SDS011;11380;50.822;15.790;2022-10-16T22:25:51;66.83;;;60.23;;
22425;SDS011;11380;50.822;15.790;2022-10-16T22:31:12;58.07;;;52.70;;
22425;SDS011;11380;50.822;15.790;2022-10-16T22:36:18;58.83;;;53.30;;
22425;SDS011;11380;50.822;15.790;2022-10-16T22:41:23;57.63;;;52.37;;
22425;SDS011;11380;50.822;15.790;2022-10-16T22:46:29;59.30;;;53.63;;
22425;SDS011;11380;50.822;15.790;2022-10-16T22:51:35;58.17;;;52.77;;
22425;SDS011;11380;50.822;15.790;2022-10-16T22:56:41;61.03;;;55.17;;
22425;SDS011;11380;50.822;15.790;2022-10-16T23:01:46;60.20;;;54.47;;
22425;SDS011;11380;50.822;15.790;2022-10-16T23:06:51;60.37;;;54.73;;
22425;SDS011;11380;50.822;15.790;2022-10-16T23:11:57;61.15;;;55.15;;
22425;SDS011;11380;50.822;15.790;2022-10-16T23:17:03;61.50;;;55.50;;
22425;SDS011;11380;50.822;15.790;2022-10-16T23:22:09;61.77;;;55.77;;
22425;SDS011;11380;50.822;15.790;2022-10-16T23:27:14;63.03;;;56.80;;
22425;SDS011;11380;50.822;15.790;2022-10-16T23:32:19;62.37;;;56.27;;
22425;SDS011;11380;50.822;15.790;2022-10-16T23:37:24;61.20;;;55.15;;
22425;SDS011;11380;50.822;15.790;2022-10-16T23:42:30;60.40;;;54.63;;
22425;SDS011;11380;50.822;15.790;2022-10-16T23:47:36;63.90;;;57.50;;
22425;SDS011;11380;50.822;15.790;2022-10-16T23:52:43;65.57;;;59.00;;
22425;SDS011;11380;50.822;15.790;2022-10-16T23:57:48;61.07;;;55.17;;
